METAR Data
IDs: Format: Raw Decoded Include TAF

Data at: 0245 UTC 18 Jun 2019

PABA 180152Z AUTO 08013KT 10SM OVC006 01/M01 A3010 RMK AO2 SLP177 T00111006 FZRANO TSNO
PABA 180144Z AUTO 08012KT 10SM OVC006 01/M01 A3010 RMK AO2 FZRANO TSNO
PABA 180052Z AUTO 10012KT 10SM OVC004 01/M01 A3010 RMK AO2 SLP178 T00061006 FZRANO TSNO
PABA 172352Z AUTO 08012KT 10SM OVC004 01/M01 A3010 RMK AO2 SLP178 T00061006 10011 20000 51002 FZRANO TSNO
PABA 172252Z AUTO 06015KT 10SM OVC004 01/M01 A3010 RMK AO2 SLP178 T00061006 FZRANO TSNO
PABA 172152Z AUTO 07012KT 10SM OVC004 01/M01 A3010 RMK AO2 SLP177 T00061006 FZRANO TSNO
PABA 172052Z AUTO 08010KT 10SM OVC004 01/M01 A3009 RMK AO2 SLP176 T00061006 50005 FZRANO TSNO
PABA 171952Z AUTO 09010KT 10SM OVC004 01/M01 A3010 RMK AO2 SLP177 T00061006 FZRANO TSNO
PABA 171852Z AUTO 09011KT 10SM OVC004 01/00 A3009 RMK AO2 SLP174 T00110000 FZRANO TSNO
PABA 171752Z AUTO 07013KT 9SM OVC004 00/M01 A3008 RMK AO2 SLP171 T00001006 10006 20000 51010 FZRANO TSNO
PABA 171738Z AUTO 06012KT 10SM OVC004 00/M01 A3008 RMK AO2 FZRANO TSNO
PABA 171652Z AUTO 06013KT 6SM BR OVC002 00/00 A3007 RMK AO2 SLP169 T00000000 FZRANO TSNO
PABA 171644Z AUTO 05013KT 4SM BR OVC002 00/00 A3007 RMK AO2 FZRANO TSNO
PABA 171640Z AUTO 05012KT 2SM BR OVC002 00/M01 A3007 RMK AO2 FZRANO TSNO
PABA 171636Z AUTO 05013KT 1SM BR OVC002 00/M01 A3007 RMK AO2 FZRANO TSNO
PABA 171624Z AUTO 05013KT 1/2SM FG OVC002 00/M01 A3007 RMK AO2 FZRANO TSNO
PABA 171620Z AUTO 06013KT 3/4SM BR OVC002 00/00 A3007 RMK AO2 FZRANO TSNO
PABA 171606Z AUTO 05011KT 1 1/4SM BR OVC002 00/M01 A3007 RMK AO2 FZRANO TSNO
PABA 171603Z AUTO 05011KT 2 1/2SM BR OVC002 00/00 A3007 RMK AO2 FZRANO TSNO
PABA 171552Z AUTO 06011KT 6SM BR OVC004 01/00 A3006 RMK AO2 SLP166 T00060000 FZRANO TSNO
PABA 171352Z AUTO 07011KT 10SM OVC004 01/00 A3003 RMK AO2 SLP154 T00060000 FZRANO TSNO
PABA 171341Z AUTO 07009KT 10SM OVC004 01/00 A3003 RMK AO2 FZRANO TSNO
PABA 171252Z AUTO 06012KT 10SM OVC006 01/00 A3002 RMK AO2 SLP151 T00060000 FZRANO TSNO
PABA 171152Z AUTO 06010KT 10SM OVC006 01/01 A3001 RMK AO2 CIG 005V008 SLP147 60008 70012 T00060006 10022 20006 53011 FZRANO TSNO
PABA 171105Z AUTO 05009KT 10SM BKN006 OVC010 01/01 A2999 RMK AO2 CIG 005V009 FZRANO TSNO
PABA 171052Z AUTO 06009KT 10SM OVC010 01/01 A2999 RMK AO2 RAE22UPB22E28 SLP141 P0000 T00060006 FZRANO TSNO
PABA 171013Z AUTO 07009KT 10SM -RA BKN006 OVC010 01/01 A2998 RMK AO2 CIG 004V009 P0000 FZRANO TSNO
PABA 170952Z AUTO 06009KT 10SM -RA BKN004 OVC010 01/01 A2997 RMK AO2 CIG 004V008 SLP136 P0001 T00060006 FZRANO TSNO
PABA 170852Z AUTO 06009KT 10SM -RA BKN008 OVC035 01/01 A2996 RMK AO2 CIG 005V011 SLP132 P0002 60007 T00110011 400831017 53008 FZRANO TSNO
PABA 170844Z AUTO 06009KT 10SM -RA BKN006 OVC033 01/01 A2996 RMK AO2 CIG 003V011 P0002 FZRANO TSNO
PABA 170836Z AUTO 06009KT 10SM -RA SCT006 BKN011 OVC033 01/01 A2996 RMK AO2 P0001 FZRANO TSNO
PABA 170831Z AUTO 06009KT 10SM -RA FEW006 SCT013 OVC033 01/01 A2996 RMK AO2 P0001 FZRANO TSNO
PABA 170824Z AUTO 06009KT 10SM -RA FEW013 SCT023 OVC033 01/01 A2996 RMK AO2 P0001 FZRANO TSNO
PABA 170756Z AUTO 06009KT 7SM -RA SCT013 BKN023 OVC033 01/01 A2995 RMK AO2 P0000 FZRANO TSNO
PABA 170752Z AUTO 06008KT 7SM -RA FEW005 BKN012 OVC033 01/01 A2995 RMK AO2 SLP127 P0003 T00110011 FZRANO TSNO
PABA 170735Z AUTO 05009KT 3SM -RA BR SCT005 SCT009 OVC012 02/01 A2995 RMK AO2 P0002 FZRANO TSNO
PABA 170726Z AUTO 04008KT 2SM -RA BR BKN005 OVC012 02/02 A2995 RMK AO2 CIG 002V009 P0002 FZRANO TSNO
PABA 170718Z AUTO 04009KT 1 3/4SM -RA BR SCT002 SCT007 OVC012 02/02 A2995 RMK AO2 P0002 FZRANO TSNO
PABA 170715Z AUTO 04009KT 2SM -RA BR SCT002 OVC012 02/02 A2995 RMK AO2 P0002 FZRANO TSNO
PABA 170701Z AUTO 04006KT 7SM -RA FEW002 OVC012 02/02 A2994 RMK AO2 P0001 FZRANO TSNO
PABA 170652Z AUTO 05005KT 9SM -RA OVC012 02/02 A2994 RMK AO2 SLP125 P0002 T00220017 FZRANO TSNO
PABA 170552Z AUTO 04004KT 7SM -RA OVC010 02/02 A2994 RMK AO2 SLP123 P0002 60004 T00220017 10072 20022 53006 FZRANO TSNO
PABA 170526Z AUTO 06003KT 7SM -RA BKN012 OVC039 02/02 A2993 RMK AO2 P0000 FZRANO TSNO
PABA 170452Z AUTO 00000KT 5SM -RA BR FEW035 SCT043 SCT050 02/02 A2993 RMK AO2 UPB0356E11 SLP119 P0002 T00220017 FZRANO TSNO
PABA 170352Z AUTO 10003KT 10SM -RA OVC042 03/02 A2992 RMK AO2 RAB09 SLP116 P0000 T00280017 TSNO
PABA 170252Z AUTO 01005KT 10SM OVC038 03/02 A2992 RMK AO2 RAB12E24 SLP117 P0000 60000 T00330017 56004 TSNO
PABA 170152Z AUTO 34005KT 10SM OVC036 04/01 A2993 RMK AO2 RAB20E31 SLP119 P0000 T00390011 TSNO
PABA 170052Z AUTO 32008KT 10SM OVC042 06/01 A2992 RMK AO2 SLP118 T00560011 TSNO
PABA 162352Z AUTO 32013KT 10SM OVC045 07/01 A2993 RMK AO2 SLP121 T00720011 10083 20044 56011 TSNO
PABA 162252Z AUTO 31010KT 10SM OVC047 07/00 A2994 RMK AO2 SLP123 T00720000 TSNO
PABA 162152Z AUTO 29013KT 10SM OVC049 08/M01 A2994 RMK AO2 SLP125 T00831006 TSNO
PABA 162052Z AUTO 30013KT 10SM OVC049 08/M02 A2996 RMK AO2 SLP132 T00781022 56007 TSNO
PABA 161952Z AUTO 28010KT 10SM OVC047 07/00 A2997 RMK AO2 SLP133 T00670000 TSNO
PABA 161852Z AUTO 27010KT 10SM OVC041 06/00 A2998 RMK AO2 SLP137 T00560000 TSNO
PABA 161752Z AUTO 26009KT 10SM OVC045 04/00 A2998 RMK AO2 SLP139 T00440000 10050 21011 56005 TSNO
PABA 161652Z AUTO 27011KT 10SM OVC050 04/01 A2999 RMK AO2 SLP140 T00440011 TSNO
PABA 161552Z AUTO 25008KT 10SM OVC055 04/02 A2999 RMK AO2 SLP141 T00440022 TSNO
PABA 161452Z AUTO 23005KT 10SM BKN070 BKN095 03/03 A3000 RMK AO2 SLP144 T00330028 56008 TSNO